sensor_id;sensor_type;location;lat;lon;timestamp;P1;durP1;ratioP1;P2;durP2;ratioP2
60354;SDS011;46198;51.464;-0.066;2023-01-10T00:01:59;15.23;;;3.27;;
60354;SDS011;46198;51.464;-0.066;2023-01-10T00:04:27;18.83;;;3.87;;
60354;SDS011;46198;51.464;-0.066;2023-01-10T00:06:57;17.03;;;3.23;;
60354;SDS011;46198;51.464;-0.066;2023-01-10T00:09:27;20.80;;;3.87;;
60354;SDS011;46198;51.464;-0.066;2023-01-10T00:11:55;15.50;;;3.37;;
60354;SDS011;46198;51.464;-0.066;2023-01-10T00:14:40;26.53;;;4.13;;
60354;SDS011;46198;51.464;-0.066;2023-01-10T00:17:08;14.63;;;3.07;;
60354;SDS011;46198;51.464;-0.066;2023-01-10T00:19:37;11.57;;;2.80;;
60354;SDS011;46198;51.464;-0.066;2023-01-10T00:22:05;14.63;;;2.73;;
60354;SDS011;46198;51.464;-0.066;2023-01-10T00:24:49;19.87;;;3.80;;
60354;SDS011;46198;51.464;-0.066;2023-01-10T00:27:19;11.50;;;2.13;;
60354;SDS011;46198;51.464;-0.066;2023-01-10T00:29:49;20.50;;;3.57;;
60354;SDS011;46198;51.464;-0.066;2023-01-10T00:32:18;18.83;;;3.47;;
60354;SDS011;46198;51.464;-0.066;2023-01-10T00:34:47;14.30;;;2.63;;
60354;SDS011;46198;51.464;-0.066;2023-01-10T00:37:15;20.80;;;3.63;;
60354;SDS011;46198;51.464;-0.066;2023-01-10T00:39:43;16.37;;;4.37;;
60354;SDS011;46198;51.464;-0.066;2023-01-10T00:42:13;16.77;;;2.80;;
60354;SDS011;46198;51.464;-0.066;2023-01-10T00:44:59;15.80;;;2.73;;
60354;SDS011;46198;51.464;-0.066;2023-01-10T00:47:27;13.60;;;2.87;;
60354;SDS011;46198;51.464;-0.066;2023-01-10T00:49:55;17.50;;;4.10;;
60354;SDS011;46198;51.464;-0.066;2023-01-10T00:52:23;15.30;;;3.00;;
60354;SDS011;46198;51.464;-0.066;2023-01-10T00:54:52;11.90;;;2.57;;
60354;SDS011;46198;51.464;-0.066;2023-01-10T00:57:22;8.17;;;2.13;;
60354;SDS011;46198;51.464;-0.066;2023-01-10T00:59:50;19.97;;;2.77;;
60354;SDS011;46198;51.464;-0.066;2023-01-10T01:02:18;20.67;;;4.00;;
60354;SDS011;46198;51.464;-0.066;2023-01-10T01:04:46;13.83;;;2.30;;
60354;SDS011;46198;51.464;-0.066;2023-01-10T01:07:15;19.80;;;2.87;;
60354;SDS011;46198;51.464;-0.066;2023-01-10T01:09:47;12.10;;;2.20;;
60354;SDS011;46198;51.464;-0.066;2023-01-10T01:12:36;16.67;;;3.00;;
60354;SDS011;46198;51.464;-0.066;2023-01-10T01:15:04;12.27;;;3.63;;
60354;SDS011;46198;51.464;-0.066;2023-01-10T01:17:33;16.17;;;2.77;;
60354;SDS011;46198;51.464;-0.066;2023-01-10T01:20:01;14.07;;;2.70;;
60354;SDS011;46198;51.464;-0.066;2023-01-10T01:22:30;15.77;;;2.90;;
60354;SDS011;46198;51.464;-0.066;2023-01-10T01:24:58;16.50;;;2.93;;
60354;SDS011;46198;51.464;-0.066;2023-01-10T01:27:26;23.17;;;2.33;;
60354;SDS011;46198;51.464;-0.066;2023-01-10T01:29:55;11.80;;;2.43;;
60354;SDS011;46198;51.464;-0.066;2023-01-10T01:32:24;12.50;;;2.70;;
60354;SDS011;46198;51.464;-0.066;2023-01-10T01:34:52;15.33;;;2.93;;
60354;SDS011;46198;51.464;-0.066;2023-01-10T01:37:20;16.30;;;3.20;;
60354;SDS011;46198;51.464;-0.066;2023-01-10T01:39:48;21.67;;;3.30;;
60354;SDS011;46198;51.464;-0.066;2023-01-10T01:42:19;15.37;;;2.73;;
60354;SDS011;46198;51.464;-0.066;2023-01-10T01:45:23;17.63;;;3.43;;
60354;SDS011;46198;51.464;-0.066;2023-01-10T01:48:00;11.27;;;2.43;;
60354;SDS011;46198;51.464;-0.066;2023-01-10T01:50:35;13.50;;;2.30;;
60354;SDS011;46198;51.464;-0.066;2023-01-10T01:53:10;15.27;;;3.00;;
60354;SDS011;46198;51.464;-0.066;2023-01-10T01:55:42;10.63;;;2.73;;
60354;SDS011;46198;51.464;-0.066;2023-01-10T01:58:13;19.27;;;4.03;;
60354;SDS011;46198;51.464;-0.066;2023-01-10T02:00:48;21.63;;;3.13;;
60354;SDS011;46198;51.464;-0.066;2023-01-10T02:03:16;12.33;;;2.90;;
60354;SDS011;46198;51.464;-0.066;2023-01-10T02:05:45;15.37;;;2.40;;
60354;SDS011;46198;51.464;-0.066;2023-01-10T02:08:13;12.00;;;2.40;;
60354;SDS011;46198;51.464;-0.066;2023-01-10T02:10:43;14.20;;;2.27;;
60354;SDS011;46198;51.464;-0.066;2023-01-10T02:13:16;14.67;;;2.50;;
60354;SDS011;46198;51.464;-0.066;2023-01-10T02:15:48;14.57;;;2.30;;
60354;SDS011;46198;51.464;-0.066;2023-01-10T02:18:19;12.10;;;2.87;;
60354;SDS011;46198;51.464;-0.066;2023-01-10T02:20:56;14.97;;;2.80;;
60354;SDS011;46198;51.464;-0.066;2023-01-10T02:27:13;16.33;;;3.57;;
60354;SDS011;46198;51.464;-0.066;2023-01-10T02:29:54;14.80;;;2.27;;
60354;SDS011;46198;51.464;-0.066;2023-01-10T02:32:47;20.13;;;3.17;;
60354;SDS011;46198;51.464;-0.066;2023-01-10T02:35:38;15.10;;;2.50;;
60354;SDS011;46198;51.464;-0.066;2023-01-10T02:38:20;13.50;;;3.00;;
60354;SDS011;46198;51.464;-0.066;2023-01-10T02:41:00;13.63;;;2.17;;
60354;SDS011;46198;51.464;-0.066;2023-01-10T02:43:37;13.90;;;3.63;;
60354;SDS011;46198;51.464;-0.066;2023-01-10T02:46:10;11.80;;;2.17;;
60354;SDS011;46198;51.464;-0.066;2023-01-10T02:48:43;15.63;;;2.30;;
60354;SDS011;46198;51.464;-0.066;2023-01-10T02:51:14;20.60;;;3.13;;
60354;SDS011;46198;51.464;-0.066;2023-01-10T02:53:46;16.00;;;2.60;;
60354;SDS011;46198;51.464;-0.066;2023-01-10T03:03:00;23.40;;;3.67;;
60354;SDS011;46198;51.464;-0.066;2023-01-10T03:05:41;12.03;;;2.20;;
60354;SDS011;46198;51.464;-0.066;2023-01-10T03:08:23;17.23;;;2.63;;
60354;SDS011;46198;51.464;-0.066;2023-01-10T03:10:57;13.47;;;2.57;;
60354;SDS011;46198;51.464;-0.066;2023-01-10T03:13:29;15.40;;;2.73;;
60354;SDS011;46198;51.464;-0.066;2023-01-10T03:16:02;17.13;;;3.03;;
60354;SDS011;46198;51.464;-0.066;2023-01-10T03:18:36;12.63;;;2.47;;
60354;SDS011;46198;51.464;-0.066;2023-01-10T03:21:10;13.60;;;2.80;;
60354;SDS011;46198;51.464;-0.066;2023-01-10T03:23:40;10.55;;;2.90;;
60354;SDS011;46198;51.464;-0.066;2023-01-10T03:26:08;11.07;;;2.10;;
60354;SDS011;46198;51.464;-0.066;2023-01-10T03:28:40;13.73;;;3.10;;
60354;SDS011;46198;51.464;-0.066;2023-01-10T03:31:16;14.60;;;2.90;;
60354;SDS011;46198;51.464;-0.066;2023-01-10T03:33:48;16.77;;;2.97;;
60354;SDS011;46198;51.464;-0.066;2023-01-10T03:36:19;13.20;;;2.73;;
60354;SDS011;46198;51.464;-0.066;2023-01-10T03:38:57;11.67;;;2.43;;
60354;SDS011;46198;51.464;-0.066;2023-01-10T03:41:41;21.60;;;3.03;;
60354;SDS011;46198;51.464;-0.066;2023-01-10T03:44:16;15.53;;;2.97;;
60354;SDS011;46198;51.464;-0.066;2023-01-10T03:47:06;8.77;;;2.27;;
60354;SDS011;46198;51.464;-0.066;2023-01-10T03:49:40;16.90;;;2.93;;
60354;SDS011;46198;51.464;-0.066;2023-01-10T03:52:15;10.70;;;2.20;;
60354;SDS011;46198;51.464;-0.066;2023-01-10T03:54:45;14.40;;;2.70;;
60354;SDS011;46198;51.464;-0.066;2023-01-10T03:57:15;15.70;;;3.40;;
60354;SDS011;46198;51.464;-0.066;2023-01-10T03:59:44;19.37;;;2.50;;
60354;SDS011;46198;51.464;-0.066;2023-01-10T04:02:14;15.03;;;2.73;;
60354;SDS011;46198;51.464;-0.066;2023-01-10T04:04:42;14.07;;;2.80;;
60354;SDS011;46198;51.464;-0.066;2023-01-10T04:07:10;11.63;;;2.90;;
60354;SDS011;46198;51.464;-0.066;2023-01-10T04:09:39;11.40;;;2.57;;
60354;SDS011;46198;51.464;-0.066;2023-01-10T04:12:07;11.10;;;2.17;;
60354;SDS011;46198;51.464;-0.066;2023-01-10T04:14:36;11.90;;;2.13;;
60354;SDS011;46198;51.464;-0.066;2023-01-10T04:17:04;14.43;;;2.10;;
60354;SDS011;46198;51.464;-0.066;2023-01-10T04:19:32;13.83;;;2.47;;
60354;SDS011;46198;51.464;-0.066;2023-01-10T04:22:00;14.30;;;2.83;;
60354;SDS011;46198;51.464;-0.066;2023-01-10T04:24:28;11.57;;;2.37;;
60354;SDS011;46198;51.464;-0.066;2023-01-10T04:26:58;12.37;;;2.73;;
60354;SDS011;46198;51.464;-0.066;2023-01-10T04:29:26;9.07;;;1.67;;
60354;SDS011;46198;51.464;-0.066;2023-01-10T04:31:54;12.73;;;1.93;;
60354;SDS011;46198;51.464;-0.066;2023-01-10T04:34:23;14.77;;;2.60;;
60354;SDS011;46198;51.464;-0.066;2023-01-10T04:36:51;7.60;;;1.73;;
60354;SDS011;46198;51.464;-0.066;2023-01-10T04:39:19;16.50;;;2.17;;
60354;SDS011;46198;51.464;-0.066;2023-01-10T04:41:47;12.07;;;2.40;;
60354;SDS011;46198;51.464;-0.066;2023-01-10T04:44:17;13.80;;;2.13;;
60354;SDS011;46198;51.464;-0.066;2023-01-10T04:46:45;17.70;;;2.53;;
60354;SDS011;46198;51.464;-0.066;2023-01-10T04:49:13;14.67;;;2.90;;
60354;SDS011;46198;51.464;-0.066;2023-01-10T04:51:41;19.77;;;2.57;;
60354;SDS011;46198;51.464;-0.066;2023-01-10T04:54:09;15.87;;;3.17;;
60354;SDS011;46198;51.464;-0.066;2023-01-10T04:56:37;17.57;;;2.73;;
60354;SDS011;46198;51.464;-0.066;2023-01-10T04:59:06;16.80;;;2.43;;
60354;SDS011;46198;51.464;-0.066;2023-01-10T05:01:37;11.77;;;2.53;;
60354;SDS011;46198;51.464;-0.066;2023-01-10T05:04:06;16.93;;;2.77;;
60354;SDS011;46198;51.464;-0.066;2023-01-10T05:06:34;10.43;;;2.60;;
60354;SDS011;46198;51.464;-0.066;2023-01-10T05:09:05;19.85;;;2.40;;
60354;SDS011;46198;51.464;-0.066;2023-01-10T05:11:33;15.50;;;2.77;;
60354;SDS011;46198;51.464;-0.066;2023-01-10T05:14:02;11.83;;;2.53;;
60354;SDS011;46198;51.464;-0.066;2023-01-10T05:16:32;10.60;;;2.20;;
60354;SDS011;46198;51.464;-0.066;2023-01-10T05:19:02;14.68;;;2.00;;
60354;SDS011;46198;51.464;-0.066;2023-01-10T05:21:30;16.93;;;2.30;;
60354;SDS011;46198;51.464;-0.066;2023-01-10T05:23:58;15.63;;;2.43;;
60354;SDS011;46198;51.464;-0.066;2023-01-10T05:26:26;17.43;;;3.30;;
60354;SDS011;46198;51.464;-0.066;2023-01-10T05:28:55;10.03;;;2.30;;
60354;SDS011;46198;51.464;-0.066;2023-01-10T05:31:27;21.77;;;2.73;;
60354;SDS011;46198;51.464;-0.066;2023-01-10T05:33:55;14.23;;;2.37;;
60354;SDS011;46198;51.464;-0.066;2023-01-10T05:36:24;12.53;;;2.17;;
60354;SDS011;46198;51.464;-0.066;2023-01-10T05:38:52;15.77;;;2.97;;
60354;SDS011;46198;51.464;-0.066;2023-01-10T05:41:21;17.47;;;2.30;;
60354;SDS011;46198;51.464;-0.066;2023-01-10T05:43:49;21.80;;;2.37;;
60354;SDS011;46198;51.464;-0.066;2023-01-10T05:46:19;16.77;;;2.73;;
60354;SDS011;46198;51.464;-0.066;2023-01-10T05:48:47;14.93;;;2.30;;
60354;SDS011;46198;51.464;-0.066;2023-01-10T05:51:15;11.10;;;2.57;;
60354;SDS011;46198;51.464;-0.066;2023-01-10T05:53:44;14.10;;;2.33;;
60354;SDS011;46198;51.464;-0.066;2023-01-10T05:58:42;13.10;;;1.87;;
60354;SDS011;46198;51.464;-0.066;2023-01-10T06:01:14;15.07;;;2.07;;
60354;SDS011;46198;51.464;-0.066;2023-01-10T06:03:43;15.33;;;2.80;;
60354;SDS011;46198;51.464;-0.066;2023-01-10T06:06:11;16.47;;;2.97;;
60354;SDS011;46198;51.464;-0.066;2023-01-10T06:08:39;12.00;;;2.73;;
60354;SDS011;46198;51.464;-0.066;2023-01-10T06:11:09;16.57;;;2.70;;
60354;SDS011;46198;51.464;-0.066;2023-01-10T06:13:37;16.43;;;2.20;;
60354;SDS011;46198;51.464;-0.066;2023-01-10T06:16:06;16.87;;;2.87;;
60354;SDS011;46198;51.464;-0.066;2023-01-10T06:18:34;27.20;;;2.53;;
60354;SDS011;46198;51.464;-0.066;2023-01-10T06:21:04;13.40;;;2.93;;
60354;SDS011;46198;51.464;-0.066;2023-01-10T06:23:33;28.42;;;2.92;;
60354;SDS011;46198;51.464;-0.066;2023-01-10T06:26:01;15.40;;;3.33;;
60354;SDS011;46198;51.464;-0.066;2023-01-10T06:28:30;18.37;;;3.30;;
60354;SDS011;46198;51.464;-0.066;2023-01-10T06:31:01;16.40;;;3.10;;
60354;SDS011;46198;51.464;-0.066;2023-01-10T06:33:29;13.43;;;2.63;;
60354;SDS011;46198;51.464;-0.066;2023-01-10T06:35:57;16.23;;;2.70;;
60354;SDS011;46198;51.464;-0.066;2023-01-10T06:38:25;14.17;;;3.07;;
60354;SDS011;46198;51.464;-0.066;2023-01-10T06:40:53;17.00;;;2.40;;
60354;SDS011;46198;51.464;-0.066;2023-01-10T06:43:21;21.83;;;3.10;;
60354;SDS011;46198;51.464;-0.066;2023-01-10T06:45:52;12.33;;;2.40;;
60354;SDS011;46198;51.464;-0.066;2023-01-10T06:48:22;16.60;;;2.53;;
60354;SDS011;46198;51.464;-0.066;2023-01-10T06:50:50;17.67;;;3.17;;
60354;SDS011;46198;51.464;-0.066;2023-01-10T06:53:21;16.70;;;3.07;;
60354;SDS011;46198;51.464;-0.066;2023-01-10T06:55:49;13.60;;;2.27;;
60354;SDS011;46198;51.464;-0.066;2023-01-10T06:58:17;18.27;;;3.10;;
60354;SDS011;46198;51.464;-0.066;2023-01-10T07:00:45;18.90;;;2.67;;
60354;SDS011;46198;51.464;-0.066;2023-01-10T07:03:17;18.00;;;3.10;;
60354;SDS011;46198;51.464;-0.066;2023-01-10T07:05:45;14.53;;;2.73;;
60354;SDS011;46198;51.464;-0.066;2023-01-10T07:08:14;11.77;;;2.70;;
60354;SDS011;46198;51.464;-0.066;2023-01-10T07:10:43;12.70;;;2.70;;
60354;SDS011;46198;51.464;-0.066;2023-01-10T07:13:11;16.27;;;2.63;;
60354;SDS011;46198;51.464;-0.066;2023-01-10T07:15:39;16.73;;;2.10;;
60354;SDS011;46198;51.464;-0.066;2023-01-10T07:18:07;15.87;;;3.20;;
60354;SDS011;46198;51.464;-0.066;2023-01-10T07:20:39;15.88;;;2.13;;
60354;SDS011;46198;51.464;-0.066;2023-01-10T07:23:07;15.90;;;2.37;;
60354;SDS011;46198;51.464;-0.066;2023-01-10T07:25:36;20.20;;;2.90;;
60354;SDS011;46198;51.464;-0.066;2023-01-10T07:28:04;15.60;;;4.07;;
60354;SDS011;46198;51.464;-0.066;2023-01-10T07:30:32;15.97;;;2.47;;
60354;SDS011;46198;51.464;-0.066;2023-01-10T07:33:01;22.93;;;3.03;;
60354;SDS011;46198;51.464;-0.066;2023-01-10T07:35:31;16.00;;;2.23;;
60354;SDS011;46198;51.464;-0.066;2023-01-10T07:38:01;18.75;;;3.22;;
60354;SDS011;46198;51.464;-0.066;2023-01-10T07:40:29;16.47;;;2.87;;
60354;SDS011;46198;51.464;-0.066;2023-01-10T07:42:58;21.77;;;2.97;;
60354;SDS011;46198;51.464;-0.066;2023-01-10T07:45:27;19.20;;;3.07;;
60354;SDS011;46198;51.464;-0.066;2023-01-10T07:47:57;13.87;;;2.43;;
60354;SDS011;46198;51.464;-0.066;2023-01-10T07:50:27;19.03;;;2.87;;
60354;SDS011;46198;51.464;-0.066;2023-01-10T07:52:57;16.73;;;3.60;;
60354;SDS011;46198;51.464;-0.066;2023-01-10T07:55:28;16.63;;;2.47;;
60354;SDS011;46198;51.464;-0.066;2023-01-10T07:57:57;10.50;;;2.83;;
60354;SDS011;46198;51.464;-0.066;2023-01-10T08:00:25;10.43;;;2.50;;
60354;SDS011;46198;51.464;-0.066;2023-01-10T08:02:54;12.57;;;2.77;;
60354;SDS011;46198;51.464;-0.066;2023-01-10T08:05:23;12.07;;;2.70;;
60354;SDS011;46198;51.464;-0.066;2023-01-10T08:07:51;10.30;;;2.77;;
60354;SDS011;46198;51.464;-0.066;2023-01-10T08:10:20;11.67;;;2.07;;
60354;SDS011;46198;51.464;-0.066;2023-01-10T08:12:50;13.03;;;3.57;;
60354;SDS011;46198;51.464;-0.066;2023-01-10T08:15:18;13.93;;;2.33;;
60354;SDS011;46198;51.464;-0.066;2023-01-10T08:17:46;5.43;;;1.73;;
60354;SDS011;46198;51.464;-0.066;2023-01-10T08:20:15;18.10;;;4.17;;
60354;SDS011;46198;51.464;-0.066;2023-01-10T08:22:43;12.03;;;2.40;;
60354;SDS011;46198;51.464;-0.066;2023-01-10T08:25:11;12.33;;;2.43;;
60354;SDS011;46198;51.464;-0.066;2023-01-10T08:27:39;21.13;;;2.83;;
60354;SDS011;46198;51.464;-0.066;2023-01-10T08:30:10;15.30;;;3.10;;
60354;SDS011;46198;51.464;-0.066;2023-01-10T08:32:39;10.13;;;2.00;;
60354;SDS011;46198;51.464;-0.066;2023-01-10T08:35:08;11.97;;;2.00;;
60354;SDS011;46198;51.464;-0.066;2023-01-10T08:37:37;7.47;;;2.33;;
60354;SDS011;46198;51.464;-0.066;2023-01-10T08:40:06;7.17;;;1.97;;
60354;SDS011;46198;51.464;-0.066;2023-01-10T08:42:35;10.93;;;2.47;;
60354;SDS011;46198;51.464;-0.066;2023-01-10T08:45:03;13.23;;;1.80;;
60354;SDS011;46198;51.464;-0.066;2023-01-10T08:47:33;13.90;;;2.03;;
60354;SDS011;46198;51.464;-0.066;2023-01-10T08:50:01;8.87;;;1.37;;
60354;SDS011;46198;51.464;-0.066;2023-01-10T08:52:32;9.95;;;2.25;;
60354;SDS011;46198;51.464;-0.066;2023-01-10T08:55:00;11.23;;;2.47;;
60354;SDS011;46198;51.464;-0.066;2023-01-10T08:57:28;8.63;;;1.50;;
60354;SDS011;46198;51.464;-0.066;2023-01-10T08:59:58;6.63;;;1.37;;
60354;SDS011;46198;51.464;-0.066;2023-01-10T09:02:26;13.43;;;2.13;;
60354;SDS011;46198;51.464;-0.066;2023-01-10T09:04:55;4.50;;;2.37;;
60354;SDS011;46198;51.464;-0.066;2023-01-10T09:07:23;14.57;;;1.73;;
60354;SDS011;46198;51.464;-0.066;2023-01-10T09:09:52;9.53;;;1.80;;
60354;SDS011;46198;51.464;-0.066;2023-01-10T09:12:20;8.07;;;1.80;;
60354;SDS011;46198;51.464;-0.066;2023-01-10T09:15:06;10.07;;;1.73;;
60354;SDS011;46198;51.464;-0.066;2023-01-10T09:17:35;8.07;;;2.10;;
60354;SDS011;46198;51.464;-0.066;2023-01-10T09:20:05;2.77;;;1.00;;
60354;SDS011;46198;51.464;-0.066;2023-01-10T09:22:35;4.73;;;1.30;;
60354;SDS011;46198;51.464;-0.066;2023-01-10T09:25:04;4.20;;;1.43;;
60354;SDS011;46198;51.464;-0.066;2023-01-10T09:27:33;6.83;;;1.30;;
60354;SDS011;46198;51.464;-0.066;2023-01-10T09:30:01;3.30;;;0.70;;
60354;SDS011;46198;51.464;-0.066;2023-01-10T09:32:30;3.40;;;0.80;;
60354;SDS011;46198;51.464;-0.066;2023-01-10T09:34:58;3.40;;;0.70;;
60354;SDS011;46198;51.464;-0.066;2023-01-10T09:37:28;5.43;;;1.27;;
60354;SDS011;46198;51.464;-0.066;2023-01-10T09:39:59;1.83;;;0.60;;
60354;SDS011;46198;51.464;-0.066;2023-01-10T09:42:35;2.27;;;0.83;;
60354;SDS011;46198;51.464;-0.066;2023-01-10T09:45:14;2.63;;;0.77;;
60354;SDS011;46198;51.464;-0.066;2023-01-10T09:47:50;1.90;;;0.60;;
60354;SDS011;46198;51.464;-0.066;2023-01-10T09:50:23;0.40;;;0.40;;
60354;SDS011;46198;51.464;-0.066;2023-01-10T09:53:02;3.47;;;1.00;;
60354;SDS011;46198;51.464;-0.066;2023-01-10T09:55:35;1.53;;;0.63;;
60354;SDS011;46198;51.464;-0.066;2023-01-10T09:58:09;0.73;;;0.32;;
60354;SDS011;46198;51.464;-0.066;2023-01-10T10:00:41;0.30;;;0.30;;
60354;SDS011;46198;51.464;-0.066;2023-01-10T10:03:20;0.80;;;0.47;;
60354;SDS011;46198;51.464;-0.066;2023-01-10T10:05:53;0.63;;;0.47;;
60354;SDS011;46198;51.464;-0.066;2023-01-10T10:08:38;0.30;;;0.30;;
60354;SDS011;46198;51.464;-0.066;2023-01-10T10:11:13;0.47;;;0.30;;
60354;SDS011;46198;51.464;-0.066;2023-01-10T10:13:58;0.60;;;0.47;;
60354;SDS011;46198;51.464;-0.066;2023-01-10T10:16:35;0.67;;;0.40;;
60354;SDS011;46198;51.464;-0.066;2023-01-10T10:19:22;0.70;;;0.50;;
60354;SDS011;46198;51.464;-0.066;2023-01-10T10:22:05;0.47;;;0.47;;
60354;SDS011;46198;51.464;-0.066;2023-01-10T10:24:43;0.40;;;0.40;;
60354;SDS011;46198;51.464;-0.066;2023-01-10T10:27:27;1.00;;;1.00;;
60354;SDS011;46198;51.464;-0.066;2023-01-10T10:30:09;1.33;;;0.60;;
60354;SDS011;46198;51.464;-0.066;2023-01-10T10:33:00;0.40;;;0.40;;
60354;SDS011;46198;51.464;-0.066;2023-01-10T10:35:40;0.50;;;0.40;;
60354;SDS011;46198;51.464;-0.066;2023-01-10T10:38:12;0.43;;;0.43;;
60354;SDS011;46198;51.464;-0.066;2023-01-10T10:40:47;0.40;;;0.40;;
60354;SDS011;46198;51.464;-0.066;2023-01-10T10:43:18;0.87;;;0.30;;
60354;SDS011;46198;51.464;-0.066;2023-01-10T10:45:50;1.25;;;0.50;;
60354;SDS011;46198;51.464;-0.066;2023-01-10T10:48:22;0.97;;;0.47;;
60354;SDS011;46198;51.464;-0.066;2023-01-10T10:50:55;0.50;;;0.50;;
60354;SDS011;46198;51.464;-0.066;2023-01-10T10:53:30;0.60;;;0.60;;
60354;SDS011;46198;51.464;-0.066;2023-01-10T10:56:04;1.25;;;0.55;;
60354;SDS011;46198;51.464;-0.066;2023-01-10T10:58:42;0.68;;;0.50;;
60354;SDS011;46198;51.464;-0.066;2023-01-10T11:01:15;1.60;;;0.50;;
60354;SDS011;46198;51.464;-0.066;2023-01-10T11:03:46;0.80;;;0.50;;
60354;SDS011;46198;51.464;-0.066;2023-01-10T11:06:19;0.50;;;0.50;;
60354;SDS011;46198;51.464;-0.066;2023-01-10T11:11:23;0.60;;;0.50;;
60354;SDS011;46198;51.464;-0.066;2023-01-10T11:13:57;0.50;;;0.50;;
60354;SDS011;46198;51.464;-0.066;2023-01-10T11:16:32;0.57;;;0.57;;
60354;SDS011;46198;51.464;-0.066;2023-01-10T11:19:08;1.03;;;0.60;;
60354;SDS011;46198;51.464;-0.066;2023-01-10T11:21:46;2.10;;;0.80;;
60354;SDS011;46198;51.464;-0.066;2023-01-10T11:24:19;2.30;;;0.77;;
60354;SDS011;46198;51.464;-0.066;2023-01-10T11:27:13;0.50;;;0.50;;
60354;SDS011;46198;51.464;-0.066;2023-01-10T11:29:54;0.77;;;0.40;;
60354;SDS011;46198;51.464;-0.066;2023-01-10T11:32:32;0.73;;;0.73;;
60354;SDS011;46198;51.464;-0.066;2023-01-10T11:35:05;0.50;;;0.50;;
60354;SDS011;46198;51.464;-0.066;2023-01-10T11:37:59;3.40;;;1.07;;
60354;SDS011;46198;51.464;-0.066;2023-01-10T11:40:35;0.57;;;0.50;;
60354;SDS011;46198;51.464;-0.066;2023-01-10T11:43:29;1.70;;;0.63;;
60354;SDS011;46198;51.464;-0.066;2023-01-10T11:46:04;0.50;;;0.50;;
60354;SDS011;46198;51.464;-0.066;2023-01-10T11:48:51;1.20;;;0.40;;
60354;SDS011;46198;51.464;-0.066;2023-01-10T11:51:52;0.90;;;0.70;;
60354;SDS011;46198;51.464;-0.066;2023-01-10T11:54:26;3.63;;;1.20;;
60354;SDS011;46198;51.464;-0.066;2023-01-10T11:56:57;1.33;;;0.52;;
60354;SDS011;46198;51.464;-0.066;2023-01-10T11:59:37;0.93;;;0.43;;
60354;SDS011;46198;51.464;-0.066;2023-01-10T12:02:10;1.05;;;0.70;;
60354;SDS011;46198;51.464;-0.066;2023-01-10T12:04:44;2.47;;;0.60;;
60354;SDS011;46198;51.464;-0.066;2023-01-10T12:07:13;1.47;;;0.90;;
60354;SDS011;46198;51.464;-0.066;2023-01-10T12:09:53;2.03;;;0.63;;
60354;SDS011;46198;51.464;-0.066;2023-01-10T12:12:24;2.03;;;0.63;;
60354;SDS011;46198;51.464;-0.066;2023-01-10T12:14:57;2.83;;;0.60;;
60354;SDS011;46198;51.464;-0.066;2023-01-10T12:17:33;0.90;;;0.70;;
60354;SDS011;46198;51.464;-0.066;2023-01-10T12:20:05;0.63;;;0.57;;
60354;SDS011;46198;51.464;-0.066;2023-01-10T12:22:44;1.40;;;0.93;;
60354;SDS011;46198;51.464;-0.066;2023-01-10T12:25:16;1.43;;;0.77;;
60354;SDS011;46198;51.464;-0.066;2023-01-10T12:27:48;1.07;;;0.73;;
60354;SDS011;46198;51.464;-0.066;2023-01-10T12:30:19;1.87;;;0.90;;
60354;SDS011;46198;51.464;-0.066;2023-01-10T12:32:56;2.83;;;0.97;;
60354;SDS011;46198;51.464;-0.066;2023-01-10T12:35:33;3.43;;;1.03;;
60354;SDS011;46198;51.464;-0.066;2023-01-10T12:38:11;2.13;;;0.97;;
60354;SDS011;46198;51.464;-0.066;2023-01-10T12:41:06;1.43;;;0.93;;
60354;SDS011;46198;51.464;-0.066;2023-01-10T12:43:57;2.80;;;1.30;;
60354;SDS011;46198;51.464;-0.066;2023-01-10T12:46:42;1.37;;;0.80;;
60354;SDS011;46198;51.464;-0.066;2023-01-10T12:49:41;2.58;;;1.10;;
60354;SDS011;46198;51.464;-0.066;2023-01-10T12:52:13;2.23;;;1.10;;
60354;SDS011;46198;51.464;-0.066;2023-01-10T12:55:18;4.53;;;1.10;;
60354;SDS011;46198;51.464;-0.066;2023-01-10T12:57:48;3.67;;;1.10;;
60354;SDS011;46198;51.464;-0.066;2023-01-10T13:00:23;4.17;;;1.70;;
60354;SDS011;46198;51.464;-0.066;2023-01-10T13:03:02;4.75;;;1.27;;
60354;SDS011;46198;51.464;-0.066;2023-01-10T13:05:44;4.83;;;1.37;;
60354;SDS011;46198;51.464;-0.066;2023-01-10T13:08:15;11.20;;;2.15;;
60354;SDS011;46198;51.464;-0.066;2023-01-10T13:13:26;13.17;;;2.43;;
60354;SDS011;46198;51.464;-0.066;2023-01-10T13:16:20;7.20;;;2.00;;
60354;SDS011;46198;51.464;-0.066;2023-01-10T13:19:01;18.13;;;2.53;;
60354;SDS011;46198;51.464;-0.066;2023-01-10T13:21:32;14.63;;;2.63;;
60354;SDS011;46198;51.464;-0.066;2023-01-10T13:24:04;14.10;;;2.90;;
60354;SDS011;46198;51.464;-0.066;2023-01-10T13:26:51;18.93;;;2.93;;
60354;SDS011;46198;51.464;-0.066;2023-01-10T13:29:36;20.15;;;3.92;;
60354;SDS011;46198;51.464;-0.066;2023-01-10T13:32:15;23.53;;;4.37;;
60354;SDS011;46198;51.464;-0.066;2023-01-10T13:37:20;18.93;;;4.43;;
60354;SDS011;46198;51.464;-0.066;2023-01-10T13:39:58;20.35;;;4.50;;
60354;SDS011;46198;51.464;-0.066;2023-01-10T13:42:37;13.65;;;3.50;;
60354;SDS011;46198;51.464;-0.066;2023-01-10T13:45:54;23.08;;;5.32;;
60354;SDS011;46198;51.464;-0.066;2023-01-10T13:52:32;33.60;;;5.40;;
60354;SDS011;46198;51.464;-0.066;2023-01-10T13:55:23;28.98;;;7.22;;
60354;SDS011;46198;51.464;-0.066;2023-01-10T13:58:03;32.58;;;9.40;;
60354;SDS011;46198;51.464;-0.066;2023-01-10T14:01:23;29.20;;;5.10;;
60354;SDS011;46198;51.464;-0.066;2023-01-10T14:04:18;32.30;;;6.13;;
60354;SDS011;46198;51.464;-0.066;2023-01-10T14:06:52;31.00;;;5.90;;
60354;SDS011;46198;51.464;-0.066;2023-01-10T14:09:37;25.08;;;5.15;;
60354;SDS011;46198;51.464;-0.066;2023-01-10T14:12:15;34.33;;;5.90;;
60354;SDS011;46198;51.464;-0.066;2023-01-10T14:14:49;41.50;;;6.28;;
60354;SDS011;46198;51.464;-0.066;2023-01-10T14:17:21;33.80;;;6.13;;
60354;SDS011;46198;51.464;-0.066;2023-01-10T14:19:57;19.98;;;4.25;;
60354;SDS011;46198;51.464;-0.066;2023-01-10T14:22:31;30.05;;;4.57;;
60354;SDS011;46198;51.464;-0.066;2023-01-10T14:25:03;28.42;;;5.18;;
60354;SDS011;46198;51.464;-0.066;2023-01-10T14:27:42;40.78;;;6.03;;
60354;SDS011;46198;51.464;-0.066;2023-01-10T14:30:15;35.53;;;6.30;;
60354;SDS011;46198;51.464;-0.066;2023-01-10T14:32:46;37.17;;;7.85;;
60354;SDS011;46198;51.464;-0.066;2023-01-10T14:35:18;26.88;;;5.15;;
60354;SDS011;46198;51.464;-0.066;2023-01-10T14:37:50;27.85;;;5.65;;
60354;SDS011;46198;51.464;-0.066;2023-01-10T14:40:27;28.77;;;4.40;;
60354;SDS011;46198;51.464;-0.066;2023-01-10T14:43:08;33.25;;;4.63;;
60354;SDS011;46198;51.464;-0.066;2023-01-10T14:45:42;22.75;;;4.78;;
60354;SDS011;46198;51.464;-0.066;2023-01-10T14:48:24;27.25;;;4.68;;
60354;SDS011;46198;51.464;-0.066;2023-01-10T14:51:08;19.20;;;3.22;;
60354;SDS011;46198;51.464;-0.066;2023-01-10T14:53:43;28.75;;;4.55;;
60354;SDS011;46198;51.464;-0.066;2023-01-10T14:56:18;21.90;;;3.80;;
60354;SDS011;46198;51.464;-0.066;2023-01-10T14:58:48;19.08;;;2.88;;
60354;SDS011;46198;51.464;-0.066;2023-01-10T15:01:21;16.52;;;3.40;;
60354;SDS011;46198;51.464;-0.066;2023-01-10T15:03:52;17.50;;;3.10;;
60354;SDS011;46198;51.464;-0.066;2023-01-10T15:06:26;16.85;;;3.33;;
60354;SDS011;46198;51.464;-0.066;2023-01-10T15:08:59;13.68;;;3.13;;
60354;SDS011;46198;51.464;-0.066;2023-01-10T15:11:30;21.60;;;3.92;;
60354;SDS011;46198;51.464;-0.066;2023-01-10T15:14:01;14.05;;;3.13;;
60354;SDS011;46198;51.464;-0.066;2023-01-10T15:16:36;16.88;;;3.78;;
60354;SDS011;46198;51.464;-0.066;2023-01-10T15:19:09;10.90;;;2.78;;
60354;SDS011;46198;51.464;-0.066;2023-01-10T15:21:42;9.90;;;2.60;;
60354;SDS011;46198;51.464;-0.066;2023-01-10T15:24:23;12.80;;;2.75;;
60354;SDS011;46198;51.464;-0.066;2023-01-10T15:27:10;12.30;;;3.15;;